createdAt,value
2019-02-24T00:00:20.778Z,103946.25
2019-02-24T00:02:47.999Z,103944.94
2019-02-24T00:05:15.412Z,103951.03
2019-02-24T00:07:42.625Z,103947.15
2019-02-24T00:10:09.816Z,103949.38
2019-02-24T00:12:37.071Z,103946.34
2019-02-24T00:15:04.615Z,103949.47
2019-02-24T00:17:31.800Z,103954.77
2019-02-24T00:19:59.037Z,103946.98
2019-02-24T00:22:26.238Z,103942.69
2019-02-24T00:24:53.439Z,103934.38
2019-02-24T00:27:20.722Z,103937.49
2019-02-24T00:29:48.104Z,103936.23
2019-02-24T00:32:15.294Z,103936.59
2019-02-24T00:34:42.538Z,103929.22
2019-02-24T00:37:09.755Z,103929.68
2019-02-24T00:39:37.072Z,103926.95
2019-02-24T00:42:04.374Z,103926.08
2019-02-24T00:44:31.551Z,103930.16
2019-02-24T00:46:58.775Z,103928.80
2019-02-24T00:49:26.001Z,103927.64
2019-02-24T00:51:53.230Z,103932.17
2019-02-24T00:54:20.422Z,103921.23
2019-02-24T00:56:47.615Z,103913.05
2019-02-24T00:59:14.823Z,103909.81
2019-02-24T01:01:41.968Z,103914.44
2019-02-24T01:04:09.194Z,103910.92
2019-02-24T01:06:36.643Z,103914.34
2019-02-24T01:09:04.901Z,103925.67
2019-02-24T01:11:32.237Z,103925.63
2019-02-24T01:13:59.481Z,103917.09
2019-02-24T01:16:26.750Z,103915.67
2019-02-24T01:18:54.105Z,103915.16
2019-02-24T01:21:21.404Z,103908.05
2019-02-24T01:23:48.727Z,103908.56
2019-02-24T01:26:16.065Z,103906.69
2019-02-24T01:28:43.297Z,103911.47
2019-02-24T01:31:10.521Z,103911.82
2019-02-24T01:33:38.140Z,103910.52
2019-02-24T01:36:05.337Z,103911.22
2019-02-24T01:38:32.547Z,103911.22
2019-02-24T01:40:59.781Z,103914.69
2019-02-24T01:43:26.960Z,103906.66
2019-02-24T01:45:54.207Z,103910.71
2019-02-24T01:48:21.391Z,103904.66
2019-02-24T01:50:48.634Z,103895.80
2019-02-24T01:53:15.863Z,103900.67
2019-02-24T01:55:43.098Z,103894.36
2019-02-24T01:58:10.295Z,103903.94
2019-02-24T02:00:37.551Z,103903.94
2019-02-24T02:03:04.762Z,103908.38
2019-02-24T02:05:32.060Z,103916.34
2019-02-24T02:07:59.238Z,103909.12
2019-02-24T02:10:26.431Z,103909.12
2019-02-24T02:12:53.700Z,103905.06
2019-02-24T02:15:21.067Z,103901.55
2019-02-24T02:17:48.260Z,103901.55
2019-02-24T02:20:15.503Z,103892.88
2019-02-24T02:22:42.710Z,103890.66
2019-02-24T02:25:10.056Z,103879.52
2019-02-24T02:27:37.241Z,103891.41
2019-02-24T02:30:05.030Z,103891.41
2019-02-24T02:32:32.333Z,103881.27
2019-02-24T02:34:59.515Z,103880.83
2019-02-24T02:37:26.695Z,103880.77
2019-02-24T02:39:53.896Z,103879.45
2019-02-24T02:42:21.079Z,103881.63
2019-02-24T02:44:48.350Z,103878.20
2019-02-24T02:47:15.532Z,103875.02
2019-02-24T02:49:42.743Z,103866.14
2019-02-24T02:52:10.051Z,103865.79
2019-02-24T02:54:37.322Z,103869.70
2019-02-24T02:57:04.702Z,103858.03
2019-02-24T02:59:31.947Z,103863.95
2019-02-24T03:01:59.150Z,103864.56
2019-02-24T03:04:26.375Z,103856.14
2019-02-24T03:07:22.485Z,103861.02
2019-02-24T03:09:49.659Z,103861.02
2019-02-24T03:12:16.832Z,103856.70
2019-02-24T03:14:44.063Z,103851.41
2019-02-24T03:17:11.452Z,103840.42
2019-02-24T03:19:38.627Z,103854.88
2019-02-24T03:22:05.837Z,103854.88
2019-02-24T03:24:33.187Z,103852.50
2019-02-24T03:27:00.412Z,103839.55
2019-02-24T03:29:27.614Z,103839.55
2019-02-24T03:31:54.929Z,103837.95
2019-02-24T03:34:22.122Z,103837.83
2019-02-24T03:36:49.316Z,103826.75
2019-02-24T03:39:16.561Z,103820.16
2019-02-24T03:41:43.812Z,103820.16
2019-02-24T03:44:11.047Z,103814.09
2019-02-24T03:46:38.231Z,103814.09
2019-02-24T03:49:05.440Z,103813.14
2019-02-24T03:51:32.639Z,103813.64
2019-02-24T03:53:59.822Z,103812.13
2019-02-24T03:56:27.063Z,103822.83
2019-02-24T03:58:54.247Z,103829.63
2019-02-24T04:01:21.475Z,103830.34
2019-02-24T04:03:48.699Z,103826.83
2019-02-24T04:06:15.918Z,103838.88
2019-02-24T04:08:43.091Z,103821.91
2019-02-24T04:11:10.278Z,103838.80
2019-02-24T04:13:37.489Z,103842.32
2019-02-24T04:16:04.783Z,103839.89
2019-02-24T04:18:31.995Z,103839.89
2019-02-24T04:20:59.266Z,103829.81
2019-02-24T04:23:26.519Z,103829.81
2019-02-24T04:25:53.807Z,103842.61
2019-02-24T04:28:21.025Z,103854.69
2019-02-24T04:30:48.218Z,103851.03
2019-02-24T04:33:15.477Z,103844.44
2019-02-24T04:35:42.750Z,103842.33
2019-02-24T04:38:09.924Z,103839.84
2019-02-24T04:40:37.114Z,103836.87
2019-02-24T04:43:04.478Z,103821.67
2019-02-24T04:45:31.649Z,103821.67
2019-02-24T04:47:58.886Z,103821.55
2019-02-24T04:50:26.134Z,103813.03
2019-02-24T04:52:53.354Z,103810.25
2019-02-24T04:55:20.609Z,103800.92
2019-02-24T04:57:47.815Z,103800.92
2019-02-24T05:00:15.060Z,103796.95
2019-02-24T05:02:42.222Z,103791.95
2019-02-24T05:05:09.450Z,103799.75
2019-02-24T05:07:36.764Z,103796.67
2019-02-24T05:10:04.479Z,103792.67
2019-02-24T05:12:31.755Z,103790.88
2019-02-24T05:14:59.143Z,103781.17
2019-02-24T05:17:26.374Z,103770.94
2019-02-24T05:19:53.537Z,103770.94
2019-02-24T05:22:20.762Z,103783.18
2019-02-24T05:24:47.942Z,103783.59
2019-02-24T05:27:15.167Z,103783.59
2019-02-24T05:29:45.822Z,103783.88
2019-02-24T05:32:11.604Z,103789.67
2019-02-24T05:34:38.829Z,103781.26
2019-02-24T05:37:06.063Z,103795.60
2019-02-24T05:39:33.247Z,103795.60
2019-02-24T05:42:00.438Z,103798.32
2019-02-24T05:44:27.702Z,103798.32
2019-02-24T05:46:54.865Z,103808.91
2019-02-24T05:49:23.685Z,103815.90
2019-02-24T05:51:51.040Z,103815.00
2019-02-24T05:54:18.384Z,103829.11
2019-02-24T05:56:45.621Z,103829.11
2019-02-24T05:59:12.975Z,103858.92
2019-02-24T06:01:40.211Z,103851.80
2019-02-24T06:04:07.498Z,103851.46
2019-02-24T06:06:34.773Z,103855.84
2019-02-24T06:09:05.048Z,103855.84
2019-02-24T06:11:35.273Z,103862.80
2019-02-24T06:14:04.791Z,103861.41
2019-02-24T06:16:34.210Z,103849.69
2019-02-24T06:19:03.775Z,103849.69
2019-02-24T06:21:31.183Z,103856.80
2019-02-24T06:23:58.413Z,103856.80
2019-02-24T06:26:25.641Z,103841.91
2019-02-24T06:28:52.825Z,103845.84
2019-02-24T06:31:20.035Z,103845.43
2019-02-24T06:33:47.256Z,103845.84
2019-02-24T06:36:14.474Z,103845.84
2019-02-24T06:38:41.649Z,103858.70
2019-02-24T06:41:08.889Z,103864.94
2019-02-24T06:43:36.099Z,103878.05
2019-02-24T06:46:03.414Z,103878.05
2019-02-24T06:48:30.592Z,103881.95
2019-02-24T06:51:00.570Z,103881.85
2019-02-24T06:53:27.799Z,103879.23
2019-02-24T06:55:55.027Z,103879.23
2019-02-24T06:58:22.408Z,103882.64
2019-02-24T07:00:50.856Z,103873.15
2019-02-24T07:03:18.725Z,103873.15
2019-02-24T07:05:46.029Z,103865.12
2019-02-24T07:08:13.447Z,103868.60
2019-02-24T07:10:40.711Z,103882.98
2019-02-24T07:13:07.916Z,103878.50
2019-02-24T07:15:35.154Z,103884.41
2019-02-24T07:18:02.347Z,103884.41
2019-02-24T07:20:29.659Z,103877.74
2019-02-24T07:22:57.038Z,103878.89
2019-02-24T07:25:24.241Z,103886.41
2019-02-24T07:27:51.438Z,103889.55
2019-02-24T07:30:23.495Z,103885.03
2019-02-24T07:32:47.775Z,103887.83
2019-02-24T07:35:15.005Z,103881.91
2019-02-24T07:37:42.230Z,103884.06
2019-02-24T07:40:09.489Z,103884.06
2019-02-24T07:42:36.669Z,103874.84
2019-02-24T07:45:03.911Z,103876.95
2019-02-24T07:47:31.431Z,103871.09
2019-02-24T07:49:58.618Z,103892.49
2019-02-24T07:52:25.844Z,103889.88
2019-02-24T07:54:53.026Z,103890.77
2019-02-24T07:57:20.236Z,103890.77
2019-02-24T07:59:47.432Z,103897.27
2019-02-24T08:02:14.626Z,103897.27
2019-02-24T08:04:41.822Z,103904.44
2019-02-24T08:07:09.018Z,103896.71
2019-02-24T08:09:36.234Z,103889.24
2019-02-24T08:12:04.375Z,103883.27
2019-02-24T08:14:31.692Z,103888.79
2019-02-24T08:16:59.028Z,103888.79
2019-02-24T08:19:26.393Z,103881.16
2019-02-24T08:21:54.073Z,103881.95
2019-02-24T08:24:21.592Z,103881.95
2019-02-24T08:26:48.796Z,103887.70
2019-02-24T08:29:16.059Z,103889.42
2019-02-24T08:31:43.819Z,103905.24
2019-02-24T08:34:11.050Z,103903.58
2019-02-24T08:36:38.318Z,103905.17
2019-02-24T08:39:05.690Z,103898.83
2019-02-24T08:41:32.999Z,103898.83
2019-02-24T08:44:00.205Z,103902.98
2019-02-24T08:46:27.556Z,103892.70
2019-02-24T08:48:54.729Z,103884.96
2019-02-24T08:51:23.421Z,103892.62
2019-02-24T08:53:50.730Z,103889.72
2019-02-24T08:56:17.940Z,103892.89
2019-02-24T08:58:45.189Z,103879.89
2019-02-24T09:01:12.460Z,103875.50
2019-02-24T09:03:39.685Z,103885.78
2019-02-24T09:06:06.918Z,103879.17
2019-02-24T09:08:34.179Z,103876.30
2019-02-24T09:11:02.303Z,103869.95
2019-02-24T09:13:34.487Z,103864.88
2019-02-24T09:16:01.821Z,103873.80
2019-02-24T09:18:29.154Z,103895.71
2019-02-24T09:20:58.231Z,103895.71
2019-02-24T09:23:27.170Z,103903.69
2019-02-24T09:25:54.477Z,103893.75
2019-02-24T09:28:21.756Z,103910.55
2019-02-24T09:30:48.999Z,103910.64
2019-02-24T09:33:16.267Z,103920.23
2019-02-24T09:35:43.447Z,103923.75
2019-02-24T09:38:10.737Z,103923.50
2019-02-24T09:40:37.902Z,103923.16
2019-02-24T09:43:05.091Z,103925.27
2019-02-24T09:45:32.303Z,103926.73
2019-02-24T09:47:59.518Z,103913.77
2019-02-24T09:50:26.759Z,103909.98
2019-02-24T09:52:54.022Z,103901.81
2019-02-24T09:55:21.235Z,103909.77
2019-02-24T09:57:48.552Z,103914.20
2019-02-24T10:00:15.950Z,103922.56
2019-02-24T10:02:43.154Z,103918.63
2019-02-24T10:05:10.339Z,103912.62
2019-02-24T10:07:37.622Z,103912.13
2019-02-24T10:10:04.842Z,103910.81
2019-02-24T10:12:32.001Z,103905.20
2019-02-24T10:14:59.631Z,103902.64
2019-02-24T10:17:26.843Z,103900.87
2019-02-24T10:19:54.084Z,103904.48
2019-02-24T10:22:21.333Z,103913.31
2019-02-24T10:24:48.551Z,103912.22
2019-02-24T10:27:15.765Z,103917.86
2019-02-24T10:29:43.020Z,103914.44
2019-02-24T10:32:10.239Z,103918.92
2019-02-24T10:34:37.439Z,103913.77
2019-02-24T10:37:04.689Z,103911.59
2019-02-24T10:39:31.930Z,103921.33
2019-02-24T10:41:59.101Z,103910.83
2019-02-24T10:44:26.411Z,103917.48
2019-02-24T10:46:53.585Z,103916.62
2019-02-24T10:49:20.753Z,103922.88
2019-02-24T10:51:47.952Z,103929.07
2019-02-24T10:54:15.158Z,103927.76
2019-02-24T10:56:42.390Z,103926.48
2019-02-24T10:59:10.028Z,103925.72
2019-02-24T11:01:37.371Z,103922.70
2019-02-24T11:04:04.719Z,103922.78
2019-02-24T11:06:31.936Z,103922.84
2019-02-24T11:08:59.088Z,103933.47
2019-02-24T11:11:26.317Z,103928.26
2019-02-24T11:13:53.698Z,103919.76
2019-02-24T11:16:20.945Z,103925.91
2019-02-24T11:18:48.249Z,103915.09
2019-02-24T11:21:15.547Z,103914.41
2019-02-24T11:23:42.966Z,103921.19
2019-02-24T11:26:10.169Z,103919.55
2019-02-24T11:28:37.382Z,103913.52
2019-02-24T11:31:04.592Z,103914.52
2019-02-24T11:33:31.835Z,103918.25
2019-02-24T11:35:59.109Z,103910.95
2019-02-24T11:38:26.255Z,103911.97
2019-02-24T11:40:53.629Z,103911.11
2019-02-24T11:43:20.898Z,103913.77
2019-02-24T11:45:48.137Z,103915.91
2019-02-24T11:48:15.280Z,103896.98
2019-02-24T11:50:42.457Z,103891.32
2019-02-24T11:53:09.761Z,103894.55
2019-02-24T11:55:38.645Z,103891.59
2019-02-24T11:58:06.142Z,103888.55
2019-02-24T12:00:33.535Z,103890.20
2019-02-24T12:03:00.850Z,103884.91
2019-02-24T12:05:28.230Z,103880.11
2019-02-24T12:07:55.527Z,103880.15
2019-02-24T12:10:22.779Z,103876.52
2019-02-24T12:12:50.133Z,103875.88
2019-02-24T12:15:17.314Z,103875.98
2019-02-24T12:17:44.696Z,103881.31
2019-02-24T12:20:11.970Z,103873.50
2019-02-24T12:22:39.171Z,103879.66
2019-02-24T12:25:06.823Z,103866.55
2019-02-24T12:27:33.962Z,103862.61
2019-02-24T12:30:01.165Z,103862.16
2019-02-24T12:32:28.338Z,103860.02
2019-02-24T12:34:55.598Z,103854.89
2019-02-24T12:37:22.800Z,103852.37
2019-02-24T12:39:50.022Z,103858.14
2019-02-24T12:42:17.262Z,103850.36
2019-02-24T12:44:44.454Z,103852.02
2019-02-24T12:47:11.659Z,103851.19
2019-02-24T12:49:38.943Z,103850.36
2019-02-24T12:52:06.150Z,103846.06
2019-02-24T12:54:33.326Z,103848.77
2019-02-24T12:57:00.554Z,103844.84
2019-02-24T12:59:27.749Z,103843.66
2019-02-24T13:01:54.963Z,103846.45
2019-02-24T13:04:22.151Z,103850.91
2019-02-24T13:06:49.394Z,103857.59
2019-02-24T13:09:16.581Z,103850.68
2019-02-24T13:11:43.743Z,103841.08
2019-02-24T13:14:11.051Z,103853.02
2019-02-24T13:16:38.353Z,103847.78
2019-02-24T13:19:05.566Z,103840.78
2019-02-24T13:21:33.455Z,103838.27
2019-02-24T13:24:00.897Z,103844.03
2019-02-24T13:26:28.189Z,103839.27
2019-02-24T13:28:55.475Z,103838.08
2019-02-24T13:31:22.685Z,103845.21
2019-02-24T13:33:50.136Z,103843.11
2019-02-24T13:36:17.377Z,103839.67
2019-02-24T13:38:44.605Z,103838.91
2019-02-24T13:41:11.872Z,103835.84
2019-02-24T13:43:39.194Z,103829.31
2019-02-24T13:46:06.432Z,103830.73
2019-02-24T13:48:33.630Z,103828.99
2019-02-24T13:51:01.602Z,103829.44
2019-02-24T13:53:31.123Z,103831.25
2019-02-24T13:55:58.483Z,103836.14
2019-02-24T13:58:25.735Z,103836.69
2019-02-24T14:00:54.696Z,103838.97
2019-02-24T14:03:22.090Z,103837.70
2019-02-24T14:05:49.475Z,103829.73
2019-02-24T14:08:16.659Z,103826.66
2019-02-24T14:10:43.840Z,103830.19
2019-02-24T14:13:11.024Z,103828.90
2019-02-24T14:15:38.246Z,103828.07
2019-02-24T14:18:05.638Z,103830.80
2019-02-24T14:20:32.855Z,103835.89
2019-02-24T14:23:00.139Z,103842.94
2019-02-24T14:25:27.497Z,103843.14
2019-02-24T14:27:54.815Z,103842.00
2019-02-24T14:30:22.896Z,103851.03
2019-02-24T14:32:50.218Z,103841.30
2019-02-24T14:35:17.511Z,103837.73
2019-02-24T14:37:46.841Z,103836.48
2019-02-24T14:40:15.565Z,103839.56
2019-02-24T14:42:45.085Z,103837.39
2019-02-24T14:45:14.091Z,103835.64
2019-02-24T14:47:41.365Z,103837.00
2019-02-24T14:50:08.822Z,103840.13
2019-02-24T14:52:36.276Z,103839.68
2019-02-24T14:55:03.758Z,103838.79
2019-02-24T14:57:30.978Z,103838.34
2019-02-24T14:59:58.147Z,103839.70
2019-02-24T15:02:25.425Z,103832.20
2019-02-24T15:04:52.655Z,103835.76
2019-02-24T15:07:19.959Z,103841.98
2019-02-24T15:09:47.144Z,103837.16
2019-02-24T15:12:14.398Z,103835.44
2019-02-24T15:14:41.646Z,103831.52
2019-02-24T15:17:08.860Z,103825.82
2019-02-24T15:22:02.943Z,103825.88
2019-02-24T15:24:30.153Z,103838.68
2019-02-24T15:26:57.504Z,103836.50
2019-02-24T15:29:24.769Z,103839.17
2019-02-24T15:31:52.226Z,103834.34
2019-02-24T15:34:19.619Z,103832.59
2019-02-24T15:36:46.859Z,103827.30
2019-02-24T15:39:14.031Z,103834.78
2019-02-24T15:41:41.307Z,103832.13
2019-02-24T15:44:10.136Z,103831.21
2019-02-24T15:46:38.355Z,103823.70
2019-02-24T15:49:05.575Z,103826.40
2019-02-24T15:51:32.887Z,103821.94
2019-02-24T15:54:00.076Z,103819.69
2019-02-24T15:56:27.283Z,103826.20
2019-02-24T15:58:54.525Z,103827.42
2019-02-24T16:01:21.803Z,103819.90
2019-02-24T16:03:49.060Z,103833.53
2019-02-24T16:06:18.032Z,103836.08
2019-02-24T16:08:45.540Z,103834.69
2019-02-24T16:11:12.890Z,103829.36
2019-02-24T16:13:40.082Z,103824.45
2019-02-24T16:16:07.306Z,103827.89
2019-02-24T16:18:34.498Z,103831.74
2019-02-24T16:21:01.699Z,103829.46
2019-02-24T16:23:29.015Z,103831.62
2019-02-24T16:25:56.214Z,103843.00
2019-02-24T16:28:23.395Z,103836.80
2019-02-24T16:30:50.747Z,103839.36
2019-02-24T16:33:17.896Z,103838.86
2019-02-24T16:35:45.163Z,103833.50
2019-02-24T16:38:12.331Z,103831.67
2019-02-24T16:40:39.729Z,103830.25
2019-02-24T16:43:07.107Z,103838.53
2019-02-24T16:45:34.294Z,103839.28
2019-02-24T16:48:01.499Z,103839.22
2019-02-24T16:50:28.742Z,103840.42
2019-02-24T16:52:56.063Z,103843.84
2019-02-24T16:55:23.283Z,103847.25
2019-02-24T16:57:50.469Z,103847.16
2019-02-24T17:00:18.358Z,103848.83
2019-02-24T17:02:45.920Z,103851.41
2019-02-24T17:05:13.164Z,103858.29
2019-02-24T17:07:40.395Z,103860.37
2019-02-24T17:10:08.752Z,103863.80
2019-02-24T17:12:35.965Z,103859.64
2019-02-24T17:15:03.759Z,103863.06
2019-02-24T17:17:31.076Z,103865.19
2019-02-24T17:19:58.368Z,103865.11
2019-02-24T17:22:25.781Z,103865.88
2019-02-24T17:25:03.169Z,103865.79
2019-02-24T17:27:36.794Z,103863.03
2019-02-24T17:30:05.530Z,103871.29
2019-02-24T17:32:32.950Z,103880.86
2019-02-24T17:35:00.320Z,103887.34
2019-02-24T17:37:27.557Z,103890.77
2019-02-24T17:39:54.987Z,103880.15
2019-02-24T17:42:22.373Z,103877.87
2019-02-24T17:44:49.722Z,103881.30
2019-02-24T17:47:17.042Z,103892.92
2019-02-24T17:49:44.360Z,103883.64
2019-02-24T17:52:11.530Z,103881.81
2019-02-24T17:54:38.755Z,103884.80
2019-02-24T17:57:06.130Z,103886.08
2019-02-24T17:59:40.239Z,103884.72
2019-02-24T18:02:03.169Z,103883.34
2019-02-24T18:04:30.336Z,103889.81
2019-02-24T18:06:57.566Z,103894.17
2019-02-24T18:09:24.751Z,103902.06
2019-02-24T18:11:51.946Z,103909.92
2019-02-24T18:14:19.158Z,103906.77
2019-02-24T18:16:46.360Z,103910.20
2019-02-24T18:19:13.548Z,103904.48
2019-02-24T18:21:40.752Z,103902.75
2019-02-24T18:24:07.975Z,103901.85
2019-02-24T18:26:40.058Z,103903.55
2019-02-24T18:29:07.880Z,103905.31
2019-02-24T18:31:35.279Z,103898.66
2019-02-24T18:34:02.543Z,103903.06
2019-02-24T18:36:29.708Z,103889.80
2019-02-24T18:38:59.324Z,103898.55
2019-02-24T18:41:26.946Z,103899.01
2019-02-24T18:43:54.437Z,103893.71
2019-02-24T18:46:21.979Z,103903.73
2019-02-24T18:48:49.254Z,103906.30
2019-02-24T18:51:16.579Z,103911.52
2019-02-24T18:53:43.774Z,103908.40
2019-02-24T18:56:10.971Z,103914.14
2019-02-24T18:58:38.172Z,103914.18
2019-02-24T19:01:05.415Z,103910.58
2019-02-24T19:03:32.723Z,103906.97
2019-02-24T19:05:59.903Z,103913.09
2019-02-24T19:08:27.066Z,103914.33
2019-02-24T19:10:54.294Z,103916.58
2019-02-24T19:13:21.509Z,103918.60
2019-02-24T19:15:48.695Z,103917.55
2019-02-24T19:18:16.009Z,103916.23
2019-02-24T19:20:43.307Z,103918.33
2019-02-24T19:23:10.493Z,103925.68
2019-02-24T19:25:37.672Z,103921.66
2019-02-24T19:28:04.894Z,103918.98
2019-02-24T19:30:32.049Z,103906.67
2019-02-24T19:32:59.290Z,103913.57
2019-02-24T19:35:26.509Z,103913.98
2019-02-24T19:37:53.687Z,103917.02
2019-02-24T19:40:20.885Z,103920.42
2019-02-24T19:42:48.057Z,103918.98
2019-02-24T19:45:15.978Z,103918.98
2019-02-24T19:47:43.144Z,103916.36
2019-02-24T19:50:11.820Z,103918.45
2019-02-24T19:52:39.018Z,103918.86
2019-02-24T19:55:07.050Z,103916.11
2019-02-24T19:57:34.224Z,103918.69
2019-02-24T20:00:01.402Z,103917.80
2019-02-24T20:02:28.604Z,103921.23
2019-02-24T20:04:55.747Z,103917.70
2019-02-24T20:07:22.922Z,103922.91
2019-02-24T20:09:50.118Z,103914.99
2019-02-24T20:12:17.252Z,103912.31
2019-02-24T20:14:44.504Z,103918.39
2019-02-24T20:17:11.702Z,103915.71
2019-02-24T20:19:38.918Z,103915.17
2019-02-24T20:22:06.081Z,103916.90
2019-02-24T20:24:33.336Z,103922.19
2019-02-24T20:27:00.470Z,103930.52
2019-02-24T20:29:27.665Z,103934.37
2019-02-24T20:31:54.834Z,103932.92
2019-02-24T20:34:25.450Z,103938.59
2019-02-24T20:36:51.253Z,103936.41
2019-02-24T20:39:18.429Z,103943.34
2019-02-24T20:41:45.611Z,103930.61
2019-02-24T20:44:12.846Z,103930.16
2019-02-24T20:46:39.997Z,103921.30
2019-02-24T20:49:07.209Z,103928.34
2019-02-24T20:51:34.423Z,103935.72
2019-02-24T20:54:01.555Z,103936.94
2019-02-24T20:56:28.751Z,103946.09
2019-02-24T20:58:55.978Z,103945.17
2019-02-24T21:01:23.161Z,103950.83
2019-02-24T21:03:50.369Z,103952.05
2019-02-24T21:06:17.573Z,103948.52
2019-02-24T21:08:44.888Z,103944.90
2019-02-24T21:11:12.099Z,103943.98
2019-02-24T21:13:39.242Z,103941.72
2019-02-24T21:16:06.437Z,103933.30
2019-02-24T21:18:33.593Z,103944.66
2019-02-24T21:21:00.842Z,103941.23
2019-02-24T21:23:28.037Z,103939.86
2019-02-24T21:25:55.270Z,103931.03
2019-02-24T21:28:22.452Z,103935.42
2019-02-24T21:30:49.664Z,103933.11
2019-02-24T21:33:16.989Z,103931.25
2019-02-24T21:35:44.181Z,103926.73
2019-02-24T21:38:11.378Z,103930.21
2019-02-24T21:40:38.542Z,103927.13
2019-02-24T21:43:05.796Z,103934.03
2019-02-24T21:45:32.952Z,103933.59
2019-02-24T21:48:00.166Z,103936.22
2019-02-24T21:50:27.356Z,103933.59
2019-02-24T21:52:54.586Z,103947.56
2019-02-24T21:55:21.797Z,103945.74
2019-02-24T21:57:49.127Z,103936.42
2019-02-24T22:00:17.996Z,103926.33
2019-02-24T22:02:45.226Z,103925.02
2019-02-24T22:05:12.492Z,103924.56
2019-02-24T22:07:39.665Z,103925.36
2019-02-24T22:10:07.862Z,103917.05
2019-02-24T22:12:35.076Z,103915.38
2019-02-24T22:15:02.258Z,103908.73
2019-02-24T22:17:29.450Z,103906.56
2019-02-24T22:19:56.641Z,103906.50
2019-02-24T22:22:23.866Z,103899.91
2019-02-24T22:24:51.058Z,103895.88
2019-02-24T22:27:18.249Z,103900.70
2019-02-24T22:29:45.478Z,103901.47
2019-02-24T22:32:12.728Z,103910.25
2019-02-24T22:34:39.911Z,103908.94
2019-02-24T22:37:07.077Z,103908.02
2019-02-24T22:39:34.294Z,103909.28
2019-02-24T22:42:01.456Z,103909.23
2019-02-24T22:44:28.732Z,103905.71
2019-02-24T22:46:55.983Z,103899.14
2019-02-24T22:49:23.158Z,103894.67
2019-02-24T22:51:50.331Z,103874.80
2019-02-24T22:54:17.534Z,103882.38
2019-02-24T22:56:44.744Z,103881.91
2019-02-24T22:59:11.919Z,103870.51
2019-02-24T23:01:39.671Z,103872.73
2019-02-24T23:04:08.993Z,103872.69
2019-02-24T23:06:36.231Z,103870.06
2019-02-24T23:09:04.977Z,103863.01
2019-02-24T23:11:32.158Z,103868.70
2019-02-24T23:13:59.351Z,103875.70
2019-02-24T23:16:26.557Z,103872.12
2019-02-24T23:18:53.770Z,103884.44
2019-02-24T23:21:21.005Z,103890.08
2019-02-24T23:23:48.285Z,103893.91
2019-02-24T23:26:15.506Z,103888.11
2019-02-24T23:28:42.699Z,103889.01
2019-02-24T23:31:09.940Z,103881.05
2019-02-24T23:33:37.126Z,103886.69
2019-02-24T23:36:04.511Z,103869.66
2019-02-24T23:38:31.733Z,103863.45
2019-02-24T23:40:58.950Z,103863.45
2019-02-24T23:43:26.168Z,103863.80
2019-02-24T23:45:53.338Z,103866.77
2019-02-24T23:48:20.565Z,103867.33
2019-02-24T23:50:47.767Z,103857.16
2019-02-24T23:53:14.994Z,103856.80
2019-02-24T23:55:42.271Z,103862.03
2019-02-24T23:58:09.437Z,103869.34
